首页
METAR-TAF:

METAR-TAF

机场 :

喬治·布什洲際機場

休斯敦, 得克萨斯州, 美国

纬度: 29-59-33N, 经度: 095-21-50W, 海拔: 29米

当前天气观测

该预报发布于13分钟前的16:53 UTC
风速10节,风向东南
温度 14°C
湿度 82%
气压 1026 hPa
能見度: 16.1公里
多云层高于3000英尺
阴天层高于4400英尺

METAR: KIAH 161653Z 14010KT 10SM BKN030 OVC044 14/11 A3030 RMK AO2 RAE16 SLP261 P0000 T01440106

时间: 11:06 (17:06 UTC)

预报

该预报发布于1小时和15分钟前的15:51 UTC
预报有效从16日的 16点(UTC)到 17日的 18点(UTC)
风速6节,风向东转东南
能見度: 10公里
阴天层高于2500英尺
从 16日的 1700点(UTC)
风速7节,风向东南
能見度: 10公里
阴天层高于1500英尺
附近有阵雨
从 16日的 2300点(UTC)
风速10节,风向东南
能見度: 9.7公里
阴天层高于1100英尺
轻雾, 附近有阵雨
从 17日的 0300点(UTC)
风速5节,风向南转南东
能見度: 6.4公里
阴天层高于800英尺
小毛毛雨, 轻雾
从 17日的 1200点(UTC)
风速5节,风向
能見度: 9.7公里
散云层高于800英尺
阴天层高于1200英尺
轻雾
从 17日的 1600点(UTC)
风速8节,风向西转西南
能見度: 10公里
散云层高于2500英尺

TAF: KIAH 161551Z 1616/1718 12006KT P6SM OVC025 FM161700 13007KT P6SM VCSH OVC015 FM162300 14010KT 6SM BR VCSH OVC011 FM170300 16005KT 4SM -DZ BR OVC008 FM171200 19005KT 6SM BR SCT008 OVC012 FM171600 25008KT P6SM SCT025

超过4000个机场的气象观测和天气预报(METAR&TAF报告)。

可查询的气象台以黄色和红色小点在地图上表示。

将鼠标移到小点上方,可查看气象台名称。

然后点击查看天气观测和预报。

如需切换地图:点击带黑十字的绿色按钮放大地图;点击带横线的绿色按钮缩小地图;或者点击绿色箭头查看邻近地区的地图。


METAR-TAF: